sensor_id;sensor_type;location;lat;lon;timestamp;P1;durP1;ratioP1;P2;durP2;ratioP2
66425;SDS011;53237;46.158;14.604;2023-08-06T00:00:27;1.15;;;1.10;;
66425;SDS011;53237;46.158;14.604;2023-08-06T00:02:54;0.90;;;0.90;;
66425;SDS011;53237;46.158;14.604;2023-08-06T00:05:20;1.10;;;1.00;;
66425;SDS011;53237;46.158;14.604;2023-08-06T00:07:49;1.05;;;1.00;;
66425;SDS011;53237;46.158;14.604;2023-08-06T00:10:16;1.20;;;1.10;;
66425;SDS011;53237;46.158;14.604;2023-08-06T00:12:43;0.85;;;0.85;;
66425;SDS011;53237;46.158;14.604;2023-08-06T00:15:09;1.25;;;1.13;;
66425;SDS011;53237;46.158;14.604;2023-08-06T00:17:35;1.13;;;0.90;;
66425;SDS011;53237;46.158;14.604;2023-08-06T00:20:02;0.85;;;0.85;;
66425;SDS011;53237;46.158;14.604;2023-08-06T00:22:31;1.30;;;1.10;;
66425;SDS011;53237;46.158;14.604;2023-08-06T00:24:57;1.10;;;1.10;;
66425;SDS011;53237;46.158;14.604;2023-08-06T00:27:23;1.02;;;1.02;;
66425;SDS011;53237;46.158;14.604;2023-08-06T00:29:49;1.38;;;0.90;;
66425;SDS011;53237;46.158;14.604;2023-08-06T00:32:15;1.10;;;1.00;;
66425;SDS011;53237;46.158;14.604;2023-08-06T00:34:41;1.10;;;1.00;;
66425;SDS011;53237;46.158;14.604;2023-08-06T00:37:07;1.95;;;1.10;;
66425;SDS011;53237;46.158;14.604;2023-08-06T00:39:33;1.00;;;1.00;;
66425;SDS011;53237;46.158;14.604;2023-08-06T00:41:59;1.63;;;0.93;;
66425;SDS011;53237;46.158;14.604;2023-08-06T00:44:25;1.90;;;1.00;;
66425;SDS011;53237;46.158;14.604;2023-08-06T00:46:51;1.67;;;1.05;;
66425;SDS011;53237;46.158;14.604;2023-08-06T00:49:17;0.90;;;0.90;;
66425;SDS011;53237;46.158;14.604;2023-08-06T00:51:44;1.33;;;0.90;;
66425;SDS011;53237;46.158;14.604;2023-08-06T00:54:10;1.23;;;1.13;;
66425;SDS011;53237;46.158;14.604;2023-08-06T00:56:36;1.33;;;1.10;;
66425;SDS011;53237;46.158;14.604;2023-08-06T00:59:03;1.20;;;1.17;;
66425;SDS011;53237;46.158;14.604;2023-08-06T01:01:29;1.60;;;1.40;;
66425;SDS011;53237;46.158;14.604;2023-08-06T01:03:55;1.30;;;1.20;;
66425;SDS011;53237;46.158;14.604;2023-08-06T01:06:24;1.33;;;1.23;;
66425;SDS011;53237;46.158;14.604;2023-08-06T01:08:58;1.42;;;1.33;;
66425;SDS011;53237;46.158;14.604;2023-08-06T01:11:28;1.33;;;1.23;;
66425;SDS011;53237;46.158;14.604;2023-08-06T01:14:16;1.70;;;1.60;;
66425;SDS011;53237;46.158;14.604;2023-08-06T01:16:45;2.20;;;2.00;;
66425;SDS011;53237;46.158;14.604;2023-08-06T01:19:17;2.05;;;1.95;;
66425;SDS011;53237;46.158;14.604;2023-08-06T01:21:44;2.25;;;1.88;;
66425;SDS011;53237;46.158;14.604;2023-08-06T01:24:10;2.20;;;2.00;;
66425;SDS011;53237;46.158;14.604;2023-08-06T01:26:42;2.10;;;1.90;;
66425;SDS011;53237;46.158;14.604;2023-08-06T01:29:17;1.80;;;1.70;;
66425;SDS011;53237;46.158;14.604;2023-08-06T01:31:44;1.92;;;1.83;;
66425;SDS011;53237;46.158;14.604;2023-08-06T01:34:17;1.98;;;1.83;;
66425;SDS011;53237;46.158;14.604;2023-08-06T01:36:43;2.03;;;1.92;;
66425;SDS011;53237;46.158;14.604;2023-08-06T01:39:09;2.30;;;2.20;;
66425;SDS011;53237;46.158;14.604;2023-08-06T01:41:35;2.45;;;2.28;;
66425;SDS011;53237;46.158;14.604;2023-08-06T01:44:01;2.30;;;2.10;;
66425;SDS011;53237;46.158;14.604;2023-08-06T01:46:27;1.80;;;1.70;;
66425;SDS011;53237;46.158;14.604;2023-08-06T01:48:53;1.80;;;1.70;;
66425;SDS011;53237;46.158;14.604;2023-08-06T01:51:19;1.73;;;1.63;;
66425;SDS011;53237;46.158;14.604;2023-08-06T01:53:45;1.80;;;1.70;;
66425;SDS011;53237;46.158;14.604;2023-08-06T01:56:11;1.70;;;1.60;;
66425;SDS011;53237;46.158;14.604;2023-08-06T01:58:37;1.90;;;1.80;;
66425;SDS011;53237;46.158;14.604;2023-08-06T02:01:03;2.13;;;2.03;;
66425;SDS011;53237;46.158;14.604;2023-08-06T02:03:29;2.00;;;1.90;;
66425;SDS011;53237;46.158;14.604;2023-08-06T02:05:55;1.88;;;1.77;;
66425;SDS011;53237;46.158;14.604;2023-08-06T02:08:21;2.60;;;2.50;;
66425;SDS011;53237;46.158;14.604;2023-08-06T02:10:47;2.00;;;1.90;;
66425;SDS011;53237;46.158;14.604;2023-08-06T02:13:13;1.58;;;1.48;;
66425;SDS011;53237;46.158;14.604;2023-08-06T02:15:43;1.67;;;1.58;;
66425;SDS011;53237;46.158;14.604;2023-08-06T02:18:09;1.40;;;1.30;;
66425;SDS011;53237;46.158;14.604;2023-08-06T02:20:35;1.90;;;1.80;;
66425;SDS011;53237;46.158;14.604;2023-08-06T02:23:01;1.60;;;1.50;;
66425;SDS011;53237;46.158;14.604;2023-08-06T02:25:27;1.40;;;1.30;;
66425;SDS011;53237;46.158;14.604;2023-08-06T02:27:53;1.50;;;1.40;;
66425;SDS011;53237;46.158;14.604;2023-08-06T02:30:19;1.33;;;1.30;;
66425;SDS011;53237;46.158;14.604;2023-08-06T02:32:45;1.48;;;1.38;;
66425;SDS011;53237;46.158;14.604;2023-08-06T02:35:11;1.60;;;1.50;;
66425;SDS011;53237;46.158;14.604;2023-08-06T02:37:37;1.45;;;1.40;;
66425;SDS011;53237;46.158;14.604;2023-08-06T02:40:04;1.70;;;1.60;;
66425;SDS011;53237;46.158;14.604;2023-08-06T02:42:30;1.52;;;1.42;;
66425;SDS011;53237;46.158;14.604;2023-08-06T02:44:56;1.30;;;1.27;;
66425;SDS011;53237;46.158;14.604;2023-08-06T02:47:22;1.52;;;1.50;;
66425;SDS011;53237;46.158;14.604;2023-08-06T02:49:48;1.52;;;1.42;;
66425;SDS011;53237;46.158;14.604;2023-08-06T02:52:14;1.52;;;1.45;;
66425;SDS011;53237;46.158;14.604;2023-08-06T02:54:40;2.20;;;2.10;;
66425;SDS011;53237;46.158;14.604;2023-08-06T02:57:06;1.52;;;1.42;;
66425;SDS011;53237;46.158;14.604;2023-08-06T02:59:32;1.33;;;1.30;;
66425;SDS011;53237;46.158;14.604;2023-08-06T03:01:58;1.30;;;1.30;;
66425;SDS011;53237;46.158;14.604;2023-08-06T03:04:24;1.40;;;1.40;;
66425;SDS011;53237;46.158;14.604;2023-08-06T03:06:51;1.60;;;1.50;;
66425;SDS011;53237;46.158;14.604;2023-08-06T03:09:17;1.50;;;1.40;;
66425;SDS011;53237;46.158;14.604;2023-08-06T03:11:43;1.30;;;1.30;;
66425;SDS011;53237;46.158;14.604;2023-08-06T03:14:09;1.33;;;1.23;;
66425;SDS011;53237;46.158;14.604;2023-08-06T03:16:35;2.30;;;1.50;;
66425;SDS011;53237;46.158;14.604;2023-08-06T03:19:01;1.40;;;1.40;;
66425;SDS011;53237;46.158;14.604;2023-08-06T03:21:27;2.35;;;1.50;;
66425;SDS011;53237;46.158;14.604;2023-08-06T03:23:53;1.48;;;1.38;;
66425;SDS011;53237;46.158;14.604;2023-08-06T03:26:19;2.22;;;1.40;;
66425;SDS011;53237;46.158;14.604;2023-08-06T03:28:45;1.35;;;1.30;;
66425;SDS011;53237;46.158;14.604;2023-08-06T03:31:11;1.60;;;1.30;;
66425;SDS011;53237;46.158;14.604;2023-08-06T03:33:37;1.20;;;1.20;;
66425;SDS011;53237;46.158;14.604;2023-08-06T03:36:03;1.70;;;1.60;;
66425;SDS011;53237;46.158;14.604;2023-08-06T03:38:29;1.77;;;1.67;;
66425;SDS011;53237;46.158;14.604;2023-08-06T03:40:55;1.60;;;1.50;;
66425;SDS011;53237;46.158;14.604;2023-08-06T03:43:21;1.45;;;1.35;;
66425;SDS011;53237;46.158;14.604;2023-08-06T03:45:47;1.63;;;1.52;;
66425;SDS011;53237;46.158;14.604;2023-08-06T03:48:13;1.67;;;1.58;;
66425;SDS011;53237;46.158;14.604;2023-08-06T03:50:39;1.70;;;1.60;;
66425;SDS011;53237;46.158;14.604;2023-08-06T03:53:06;1.85;;;1.75;;
66425;SDS011;53237;46.158;14.604;2023-08-06T03:55:32;1.60;;;1.50;;
66425;SDS011;53237;46.158;14.604;2023-08-06T03:57:58;1.52;;;1.40;;
66425;SDS011;53237;46.158;14.604;2023-08-06T04:00:24;1.60;;;1.50;;
66425;SDS011;53237;46.158;14.604;2023-08-06T04:02:50;1.67;;;1.42;;
66425;SDS011;53237;46.158;14.604;2023-08-06T04:05:16;1.70;;;1.60;;
66425;SDS011;53237;46.158;14.604;2023-08-06T04:07:42;1.90;;;1.80;;
66425;SDS011;53237;46.158;14.604;2023-08-06T04:10:08;1.75;;;1.65;;
66425;SDS011;53237;46.158;14.604;2023-08-06T04:12:34;1.70;;;1.60;;
66425;SDS011;53237;46.158;14.604;2023-08-06T04:15:04;1.90;;;1.75;;
66425;SDS011;53237;46.158;14.604;2023-08-06T04:17:30;2.05;;;1.95;;
66425;SDS011;53237;46.158;14.604;2023-08-06T04:19:56;1.80;;;1.70;;
66425;SDS011;53237;46.158;14.604;2023-08-06T04:22:24;2.30;;;1.83;;
66425;SDS011;53237;46.158;14.604;2023-08-06T04:24:50;1.92;;;1.83;;
66425;SDS011;53237;46.158;14.604;2023-08-06T04:27:17;2.00;;;1.90;;
66425;SDS011;53237;46.158;14.604;2023-08-06T04:29:43;2.08;;;1.88;;
66425;SDS011;53237;46.158;14.604;2023-08-06T04:32:10;1.85;;;1.75;;
66425;SDS011;53237;46.158;14.604;2023-08-06T04:34:36;1.80;;;1.70;;
66425;SDS011;53237;46.158;14.604;2023-08-06T04:37:03;2.65;;;2.45;;
66425;SDS011;53237;46.158;14.604;2023-08-06T04:39:29;1.90;;;1.80;;
66425;SDS011;53237;46.158;14.604;2023-08-06T04:41:55;2.28;;;2.17;;
66425;SDS011;53237;46.158;14.604;2023-08-06T04:44:24;2.33;;;2.20;;
66425;SDS011;53237;46.158;14.604;2023-08-06T04:46:51;1.95;;;1.85;;
66425;SDS011;53237;46.158;14.604;2023-08-06T04:49:17;2.20;;;2.10;;
66425;SDS011;53237;46.158;14.604;2023-08-06T04:51:43;2.33;;;2.20;;
66425;SDS011;53237;46.158;14.604;2023-08-06T04:54:09;2.40;;;2.20;;
66425;SDS011;53237;46.158;14.604;2023-08-06T04:56:35;2.17;;;2.08;;
66425;SDS011;53237;46.158;14.604;2023-08-06T04:59:01;2.30;;;2.20;;
66425;SDS011;53237;46.158;14.604;2023-08-06T05:01:27;2.58;;;2.33;;
66425;SDS011;53237;46.158;14.604;2023-08-06T05:03:53;2.20;;;2.10;;
66425;SDS011;53237;46.158;14.604;2023-08-06T05:06:20;2.42;;;2.22;;
66425;SDS011;53237;46.158;14.604;2023-08-06T05:08:46;2.50;;;2.30;;
66425;SDS011;53237;46.158;14.604;2023-08-06T05:11:12;2.13;;;2.00;;
66425;SDS011;53237;46.158;14.604;2023-08-06T05:13:38;1.90;;;1.80;;
66425;SDS011;53237;46.158;14.604;2023-08-06T05:16:04;2.50;;;2.30;;
66425;SDS011;53237;46.158;14.604;2023-08-06T05:18:30;2.55;;;2.35;;
66425;SDS011;53237;46.158;14.604;2023-08-06T05:20:56;2.53;;;2.30;;
66425;SDS011;53237;46.158;14.604;2023-08-06T05:23:22;2.92;;;2.72;;
66425;SDS011;53237;46.158;14.604;2023-08-06T05:25:48;2.60;;;2.40;;
66425;SDS011;53237;46.158;14.604;2023-08-06T05:28:14;2.75;;;2.55;;
66425;SDS011;53237;46.158;14.604;2023-08-06T05:30:40;2.90;;;2.70;;
66425;SDS011;53237;46.158;14.604;2023-08-06T05:33:07;3.08;;;2.88;;
66425;SDS011;53237;46.158;14.604;2023-08-06T05:35:33;3.45;;;2.88;;
66425;SDS011;53237;46.158;14.604;2023-08-06T05:37:59;3.25;;;3.05;;
66425;SDS011;53237;46.158;14.604;2023-08-06T05:40:25;3.30;;;3.10;;
66425;SDS011;53237;46.158;14.604;2023-08-06T05:42:53;3.53;;;3.22;;
66425;SDS011;53237;46.158;14.604;2023-08-06T05:45:19;3.40;;;3.20;;
66425;SDS011;53237;46.158;14.604;2023-08-06T05:47:47;3.10;;;2.90;;
66425;SDS011;53237;46.158;14.604;2023-08-06T05:50:14;3.38;;;3.17;;
66425;SDS011;53237;46.158;14.604;2023-08-06T05:52:40;3.42;;;3.13;;
66425;SDS011;53237;46.158;14.604;2023-08-06T05:55:06;3.70;;;3.40;;
66425;SDS011;53237;46.158;14.604;2023-08-06T05:57:32;3.67;;;3.38;;
66425;SDS011;53237;46.158;14.604;2023-08-06T05:59:58;3.42;;;3.13;;
66425;SDS011;53237;46.158;14.604;2023-08-06T06:02:24;3.50;;;3.10;;
66425;SDS011;53237;46.158;14.604;2023-08-06T06:04:50;3.40;;;3.20;;
66425;SDS011;53237;46.158;14.604;2023-08-06T06:07:16;3.20;;;3.00;;
66425;SDS011;53237;46.158;14.604;2023-08-06T06:09:42;3.75;;;3.45;;
66425;SDS011;53237;46.158;14.604;2023-08-06T06:12:08;3.55;;;3.35;;
66425;SDS011;53237;46.158;14.604;2023-08-06T06:14:34;3.08;;;2.88;;
66425;SDS011;53237;46.158;14.604;2023-08-06T06:17:00;3.55;;;3.25;;
66425;SDS011;53237;46.158;14.604;2023-08-06T06:19:26;3.33;;;3.13;;
66425;SDS011;53237;46.158;14.604;2023-08-06T06:21:53;3.17;;;2.90;;
66425;SDS011;53237;46.158;14.604;2023-08-06T06:24:19;2.78;;;2.58;;
66425;SDS011;53237;46.158;14.604;2023-08-06T06:26:45;3.13;;;2.85;;
66425;SDS011;53237;46.158;14.604;2023-08-06T06:29:11;3.03;;;2.83;;
66425;SDS011;53237;46.158;14.604;2023-08-06T06:31:37;2.42;;;2.30;;
66425;SDS011;53237;46.158;14.604;2023-08-06T06:34:03;2.58;;;2.47;;
66425;SDS011;53237;46.158;14.604;2023-08-06T06:36:29;3.03;;;2.83;;
66425;SDS011;53237;46.158;14.604;2023-08-06T06:38:55;3.20;;;3.00;;
66425;SDS011;53237;46.158;14.604;2023-08-06T06:41:21;2.90;;;2.70;;
66425;SDS011;53237;46.158;14.604;2023-08-06T06:43:47;2.90;;;2.70;;
66425;SDS011;53237;46.158;14.604;2023-08-06T06:46:13;2.60;;;2.50;;
66425;SDS011;53237;46.158;14.604;2023-08-06T06:48:39;2.40;;;2.30;;
66425;SDS011;53237;46.158;14.604;2023-08-06T06:51:05;3.13;;;2.92;;
66425;SDS011;53237;46.158;14.604;2023-08-06T06:53:32;3.50;;;3.30;;
66425;SDS011;53237;46.158;14.604;2023-08-06T06:56:02;3.13;;;2.83;;
66425;SDS011;53237;46.158;14.604;2023-08-06T06:58:29;2.80;;;2.60;;
66425;SDS011;53237;46.158;14.604;2023-08-06T07:00:55;2.60;;;2.40;;
66425;SDS011;53237;46.158;14.604;2023-08-06T07:03:21;2.90;;;2.70;;
66425;SDS011;53237;46.158;14.604;2023-08-06T07:05:47;2.58;;;2.38;;
66425;SDS011;53237;46.158;14.604;2023-08-06T07:08:13;2.30;;;2.20;;
66425;SDS011;53237;46.158;14.604;2023-08-06T07:10:40;2.22;;;2.13;;
66425;SDS011;53237;46.158;14.604;2023-08-06T07:13:06;2.38;;;2.28;;
66425;SDS011;53237;46.158;14.604;2023-08-06T07:15:32;2.63;;;2.45;;
66425;SDS011;53237;46.158;14.604;2023-08-06T07:17:58;2.80;;;2.60;;
66425;SDS011;53237;46.158;14.604;2023-08-06T07:20:24;2.17;;;2.08;;
66425;SDS011;53237;46.158;14.604;2023-08-06T07:22:50;2.20;;;2.10;;
66425;SDS011;53237;46.158;14.604;2023-08-06T07:25:16;2.17;;;2.08;;
66425;SDS011;53237;46.158;14.604;2023-08-06T07:27:42;2.10;;;1.90;;
66425;SDS011;53237;46.158;14.604;2023-08-06T07:30:08;2.03;;;1.92;;
66425;SDS011;53237;46.158;14.604;2023-08-06T07:32:35;2.58;;;1.63;;
66425;SDS011;53237;46.158;14.604;2023-08-06T07:35:01;1.95;;;1.80;;
66425;SDS011;53237;46.158;14.604;2023-08-06T07:37:27;2.05;;;1.95;;
66425;SDS011;53237;46.158;14.604;2023-08-06T07:39:54;1.90;;;1.80;;
66425;SDS011;53237;46.158;14.604;2023-08-06T07:42:20;1.60;;;1.50;;
66425;SDS011;53237;46.158;14.604;2023-08-06T07:44:53;1.92;;;1.83;;
66425;SDS011;53237;46.158;14.604;2023-08-06T07:47:20;1.52;;;1.42;;
66425;SDS011;53237;46.158;14.604;2023-08-06T07:49:46;1.48;;;1.38;;
66425;SDS011;53237;46.158;14.604;2023-08-06T07:52:12;1.50;;;1.40;;
66425;SDS011;53237;46.158;14.604;2023-08-06T07:54:38;1.50;;;1.10;;
66425;SDS011;53237;46.158;14.604;2023-08-06T07:57:04;1.10;;;1.10;;
66425;SDS011;53237;46.158;14.604;2023-08-06T07:59:30;1.50;;;1.40;;
66425;SDS011;53237;46.158;14.604;2023-08-06T08:01:56;1.40;;;1.30;;
66425;SDS011;53237;46.158;14.604;2023-08-06T08:04:23;1.23;;;1.20;;
66425;SDS011;53237;46.158;14.604;2023-08-06T08:06:49;1.45;;;1.42;;
66425;SDS011;53237;46.158;14.604;2023-08-06T08:09:15;1.05;;;1.02;;
66425;SDS011;53237;46.158;14.604;2023-08-06T08:11:41;1.17;;;1.17;;
66425;SDS011;53237;46.158;14.604;2023-08-06T08:14:07;1.17;;;1.05;;
66425;SDS011;53237;46.158;14.604;2023-08-06T08:16:33;1.40;;;1.13;;
66425;SDS011;53237;46.158;14.604;2023-08-06T08:18:59;1.55;;;1.10;;
66425;SDS011;53237;46.158;14.604;2023-08-06T08:21:25;5.13;;;1.13;;
66425;SDS011;53237;46.158;14.604;2023-08-06T08:23:51;2.78;;;0.93;;
66425;SDS011;53237;46.158;14.604;2023-08-06T08:26:17;3.60;;;1.30;;
66425;SDS011;53237;46.158;14.604;2023-08-06T08:28:43;1.75;;;1.40;;
66425;SDS011;53237;46.158;14.604;2023-08-06T08:31:10;1.45;;;1.05;;
66425;SDS011;53237;46.158;14.604;2023-08-06T08:33:36;1.98;;;1.15;;
66425;SDS011;53237;46.158;14.604;2023-08-06T08:36:02;1.30;;;1.20;;
66425;SDS011;53237;46.158;14.604;2023-08-06T08:38:29;2.08;;;1.30;;
66425;SDS011;53237;46.158;14.604;2023-08-06T08:40:55;1.25;;;1.15;;
66425;SDS011;53237;46.158;14.604;2023-08-06T08:43:21;0.70;;;0.70;;
66425;SDS011;53237;46.158;14.604;2023-08-06T08:45:49;0.73;;;0.70;;
66425;SDS011;53237;46.158;14.604;2023-08-06T08:48:16;1.58;;;0.80;;
66425;SDS011;53237;46.158;14.604;2023-08-06T08:50:44;1.00;;;0.98;;
66425;SDS011;53237;46.158;14.604;2023-08-06T08:53:11;1.20;;;0.90;;
66425;SDS011;53237;46.158;14.604;2023-08-06T08:55:37;1.33;;;0.70;;
66425;SDS011;53237;46.158;14.604;2023-08-06T08:58:03;2.53;;;0.77;;
66425;SDS011;53237;46.158;14.604;2023-08-06T09:00:29;0.82;;;0.60;;
66425;SDS011;53237;46.158;14.604;2023-08-06T09:02:56;0.85;;;0.70;;
66425;SDS011;53237;46.158;14.604;2023-08-06T09:05:23;0.70;;;0.60;;
66425;SDS011;53237;46.158;14.604;2023-08-06T09:07:50;2.45;;;0.70;;
66425;SDS011;53237;46.158;14.604;2023-08-06T09:10:18;1.33;;;0.68;;
66425;SDS011;53237;46.158;14.604;2023-08-06T09:12:48;0.85;;;0.80;;
66425;SDS011;53237;46.158;14.604;2023-08-06T09:15:16;1.13;;;1.00;;
66425;SDS011;53237;46.158;14.604;2023-08-06T09:17:42;0.70;;;0.70;;
66425;SDS011;53237;46.158;14.604;2023-08-06T09:20:12;0.60;;;0.60;;
66425;SDS011;53237;46.158;14.604;2023-08-06T09:22:38;0.50;;;0.50;;
66425;SDS011;53237;46.158;14.604;2023-08-06T09:25:04;0.50;;;0.50;;
66425;SDS011;53237;46.158;14.604;2023-08-06T09:27:34;1.75;;;0.80;;
66425;SDS011;53237;46.158;14.604;2023-08-06T09:30:00;0.60;;;0.60;;
66425;SDS011;53237;46.158;14.604;2023-08-06T09:32:26;0.68;;;0.60;;
66425;SDS011;53237;46.158;14.604;2023-08-06T09:34:56;0.50;;;0.50;;
66425;SDS011;53237;46.158;14.604;2023-08-06T09:37:22;1.67;;;0.70;;
66425;SDS011;53237;46.158;14.604;2023-08-06T09:39:48;0.80;;;0.80;;
66425;SDS011;53237;46.158;14.604;2023-08-06T09:42:15;0.50;;;0.50;;
66425;SDS011;53237;46.158;14.604;2023-08-06T09:44:41;0.70;;;0.70;;
66425;SDS011;53237;46.158;14.604;2023-08-06T09:47:07;0.60;;;0.60;;
66425;SDS011;53237;46.158;14.604;2023-08-06T09:52:02;0.50;;;0.50;;
66425;SDS011;53237;46.158;14.604;2023-08-06T09:54:29;0.50;;;0.50;;
66425;SDS011;53237;46.158;14.604;2023-08-06T09:56:55;0.50;;;0.50;;
66425;SDS011;53237;46.158;14.604;2023-08-06T09:59:24;0.55;;;0.55;;
66425;SDS011;53237;46.158;14.604;2023-08-06T10:01:51;0.60;;;0.60;;
66425;SDS011;53237;46.158;14.604;2023-08-06T10:04:17;1.30;;;0.70;;
66425;SDS011;53237;46.158;14.604;2023-08-06T10:06:46;0.50;;;0.50;;
66425;SDS011;53237;46.158;14.604;2023-08-06T10:09:15;0.55;;;0.50;;
66425;SDS011;53237;46.158;14.604;2023-08-06T10:11:42;0.40;;;0.40;;
66425;SDS011;53237;46.158;14.604;2023-08-06T10:14:13;0.70;;;0.40;;
66425;SDS011;53237;46.158;14.604;2023-08-06T10:16:40;0.80;;;0.60;;
66425;SDS011;53237;46.158;14.604;2023-08-06T10:19:07;0.50;;;0.50;;
66425;SDS011;53237;46.158;14.604;2023-08-06T10:21:33;0.55;;;0.55;;
66425;SDS011;53237;46.158;14.604;2023-08-06T10:23:59;0.55;;;0.50;;
66425;SDS011;53237;46.158;14.604;2023-08-06T10:26:27;0.40;;;0.40;;
66425;SDS011;53237;46.158;14.604;2023-08-06T10:28:53;0.50;;;0.50;;
66425;SDS011;53237;46.158;14.604;2023-08-06T10:31:20;0.40;;;0.40;;
66425;SDS011;53237;46.158;14.604;2023-08-06T10:33:46;0.40;;;0.40;;
66425;SDS011;53237;46.158;14.604;2023-08-06T10:36:14;0.60;;;0.60;;
66425;SDS011;53237;46.158;14.604;2023-08-06T10:38:49;0.43;;;0.43;;
66425;SDS011;53237;46.158;14.604;2023-08-06T10:41:23;0.50;;;0.50;;
66425;SDS011;53237;46.158;14.604;2023-08-06T10:43:54;1.38;;;0.32;;
66425;SDS011;53237;46.158;14.604;2023-08-06T10:46:32;0.52;;;0.32;;
66425;SDS011;53237;46.158;14.604;2023-08-06T10:48:58;0.40;;;0.40;;
66425;SDS011;53237;46.158;14.604;2023-08-06T10:51:24;0.70;;;0.70;;
66425;SDS011;53237;46.158;14.604;2023-08-06T10:53:51;0.35;;;0.30;;
66425;SDS011;53237;46.158;14.604;2023-08-06T10:56:21;0.50;;;0.50;;
66425;SDS011;53237;46.158;14.604;2023-08-06T10:58:47;0.40;;;0.40;;
66425;SDS011;53237;46.158;14.604;2023-08-06T11:01:14;0.40;;;0.40;;
66425;SDS011;53237;46.158;14.604;2023-08-06T11:03:40;0.40;;;0.40;;
66425;SDS011;53237;46.158;14.604;2023-08-06T11:06:07;0.40;;;0.40;;
66425;SDS011;53237;46.158;14.604;2023-08-06T11:08:34;1.75;;;0.50;;
66425;SDS011;53237;46.158;14.604;2023-08-06T11:11:10;0.30;;;0.30;;
66425;SDS011;53237;46.158;14.604;2023-08-06T11:13:38;0.40;;;0.40;;
66425;SDS011;53237;46.158;14.604;2023-08-06T11:16:04;0.85;;;0.40;;
66425;SDS011;53237;46.158;14.604;2023-08-06T11:18:34;0.95;;;0.30;;
66425;SDS011;53237;46.158;14.604;2023-08-06T11:21:01;0.40;;;0.40;;
66425;SDS011;53237;46.158;14.604;2023-08-06T11:23:28;0.52;;;0.30;;
66425;SDS011;53237;46.158;14.604;2023-08-06T11:25:54;1.27;;;0.40;;
66425;SDS011;53237;46.158;14.604;2023-08-06T11:28:20;0.50;;;0.50;;
66425;SDS011;53237;46.158;14.604;2023-08-06T11:30:47;0.50;;;0.50;;
66425;SDS011;53237;46.158;14.604;2023-08-06T11:33:13;0.50;;;0.50;;
66425;SDS011;53237;46.158;14.604;2023-08-06T11:35:39;0.45;;;0.45;;
66425;SDS011;53237;46.158;14.604;2023-08-06T11:38:05;0.45;;;0.45;;
66425;SDS011;53237;46.158;14.604;2023-08-06T11:40:32;0.47;;;0.47;;
66425;SDS011;53237;46.158;14.604;2023-08-06T11:42:58;0.45;;;0.45;;
66425;SDS011;53237;46.158;14.604;2023-08-06T11:45:24;0.45;;;0.45;;
66425;SDS011;53237;46.158;14.604;2023-08-06T11:47:51;0.50;;;0.50;;
66425;SDS011;53237;46.158;14.604;2023-08-06T11:50:24;0.45;;;0.40;;
66425;SDS011;53237;46.158;14.604;2023-08-06T11:52:58;0.30;;;0.30;;
66425;SDS011;53237;46.158;14.604;2023-08-06T11:55:25;0.40;;;0.40;;
66425;SDS011;53237;46.158;14.604;2023-08-06T11:57:53;0.60;;;0.60;;
66425;SDS011;53237;46.158;14.604;2023-08-06T12:00:19;0.40;;;0.40;;
66425;SDS011;53237;46.158;14.604;2023-08-06T12:02:47;0.40;;;0.40;;
66425;SDS011;53237;46.158;14.604;2023-08-06T12:05:21;0.32;;;0.30;;
66425;SDS011;53237;46.158;14.604;2023-08-06T12:07:51;0.20;;;0.20;;
66425;SDS011;53237;46.158;14.604;2023-08-06T12:10:18;0.43;;;0.43;;
66425;SDS011;53237;46.158;14.604;2023-08-06T12:12:44;0.30;;;0.30;;
66425;SDS011;53237;46.158;14.604;2023-08-06T12:15:11;0.52;;;0.40;;
66425;SDS011;53237;46.158;14.604;2023-08-06T12:17:37;0.50;;;0.50;;
66425;SDS011;53237;46.158;14.604;2023-08-06T12:20:04;0.40;;;0.40;;
66425;SDS011;53237;46.158;14.604;2023-08-06T12:22:30;0.40;;;0.40;;
66425;SDS011;53237;46.158;14.604;2023-08-06T12:25:00;0.40;;;0.40;;
66425;SDS011;53237;46.158;14.604;2023-08-06T12:27:26;0.50;;;0.50;;
66425;SDS011;53237;46.158;14.604;2023-08-06T12:29:52;0.40;;;0.40;;
66425;SDS011;53237;46.158;14.604;2023-08-06T12:32:18;0.50;;;0.50;;
66425;SDS011;53237;46.158;14.604;2023-08-06T12:34:44;0.70;;;0.60;;
66425;SDS011;53237;46.158;14.604;2023-08-06T12:37:10;0.50;;;0.50;;
66425;SDS011;53237;46.158;14.604;2023-08-06T12:39:36;0.40;;;0.40;;
66425;SDS011;53237;46.158;14.604;2023-08-06T12:42:03;0.60;;;0.60;;
66425;SDS011;53237;46.158;14.604;2023-08-06T12:44:29;0.50;;;0.50;;
66425;SDS011;53237;46.158;14.604;2023-08-06T12:46:56;0.57;;;0.57;;
66425;SDS011;53237;46.158;14.604;2023-08-06T12:49:22;1.50;;;0.60;;
66425;SDS011;53237;46.158;14.604;2023-08-06T12:51:51;0.75;;;0.63;;
66425;SDS011;53237;46.158;14.604;2023-08-06T12:54:17;0.70;;;0.70;;
66425;SDS011;53237;46.158;14.604;2023-08-06T12:56:44;0.70;;;0.70;;
66425;SDS011;53237;46.158;14.604;2023-08-06T12:59:10;0.55;;;0.52;;
66425;SDS011;53237;46.158;14.604;2023-08-06T13:01:37;1.25;;;0.60;;
66425;SDS011;53237;46.158;14.604;2023-08-06T13:04:03;0.57;;;0.57;;
66425;SDS011;53237;46.158;14.604;2023-08-06T13:06:30;0.40;;;0.40;;
66425;SDS011;53237;46.158;14.604;2023-08-06T13:09:00;0.40;;;0.30;;
66425;SDS011;53237;46.158;14.604;2023-08-06T13:11:26;0.40;;;0.40;;
66425;SDS011;53237;46.158;14.604;2023-08-06T13:13:52;2.15;;;0.60;;
66425;SDS011;53237;46.158;14.604;2023-08-06T13:16:19;0.65;;;0.55;;
66425;SDS011;53237;46.158;14.604;2023-08-06T13:18:45;0.75;;;0.63;;
66425;SDS011;53237;46.158;14.604;2023-08-06T13:21:11;0.30;;;0.30;;
66425;SDS011;53237;46.158;14.604;2023-08-06T13:23:39;0.60;;;0.55;;
66425;SDS011;53237;46.158;14.604;2023-08-06T13:26:05;0.52;;;0.47;;
66425;SDS011;53237;46.158;14.604;2023-08-06T13:28:31;1.48;;;0.50;;
66425;SDS011;53237;46.158;14.604;2023-08-06T13:30:57;0.70;;;0.47;;
66425;SDS011;53237;46.158;14.604;2023-08-06T13:33:23;1.73;;;0.50;;
66425;SDS011;53237;46.158;14.604;2023-08-06T13:35:49;0.80;;;0.70;;
66425;SDS011;53237;46.158;14.604;2023-08-06T13:38:15;0.98;;;0.88;;
66425;SDS011;53237;46.158;14.604;2023-08-06T13:40:41;0.40;;;0.40;;
66425;SDS011;53237;46.158;14.604;2023-08-06T13:43:09;0.63;;;0.43;;
66425;SDS011;53237;46.158;14.604;2023-08-06T13:45:35;0.65;;;0.40;;
66425;SDS011;53237;46.158;14.604;2023-08-06T13:48:03;0.47;;;0.40;;
66425;SDS011;53237;46.158;14.604;2023-08-06T13:50:29;0.70;;;0.50;;
66425;SDS011;53237;46.158;14.604;2023-08-06T13:52:55;0.50;;;0.50;;
66425;SDS011;53237;46.158;14.604;2023-08-06T13:55:21;0.60;;;0.60;;
66425;SDS011;53237;46.158;14.604;2023-08-06T13:57:47;1.25;;;0.70;;
66425;SDS011;53237;46.158;14.604;2023-08-06T14:00:14;0.82;;;0.60;;
66425;SDS011;53237;46.158;14.604;2023-08-06T14:02:40;0.68;;;0.68;;
66425;SDS011;53237;46.158;14.604;2023-08-06T14:05:09;0.47;;;0.47;;
66425;SDS011;53237;46.158;14.604;2023-08-06T14:07:35;0.50;;;0.50;;
66425;SDS011;53237;46.158;14.604;2023-08-06T14:10:01;0.88;;;0.60;;
66425;SDS011;53237;46.158;14.604;2023-08-06T14:12:27;0.50;;;0.50;;
66425;SDS011;53237;46.158;14.604;2023-08-06T14:14:53;3.58;;;0.50;;
66425;SDS011;53237;46.158;14.604;2023-08-06T14:17:19;1.08;;;0.52;;
66425;SDS011;53237;46.158;14.604;2023-08-06T14:19:45;0.88;;;0.38;;
66425;SDS011;53237;46.158;14.604;2023-08-06T14:22:11;1.30;;;0.30;;
66425;SDS011;53237;46.158;14.604;2023-08-06T14:24:37;0.50;;;0.50;;
66425;SDS011;53237;46.158;14.604;2023-08-06T14:27:03;0.55;;;0.38;;
66425;SDS011;53237;46.158;14.604;2023-08-06T14:29:31;0.43;;;0.43;;
66425;SDS011;53237;46.158;14.604;2023-08-06T14:31:57;0.57;;;0.40;;